sensor_id;sensor_type;location;lat;lon;timestamp;temperature;humidity
51305;HTU21D;37392;50.964;6.952;2023-06-24T00:00:59;18.55;96.47
51305;HTU21D;37392;50.964;6.952;2023-06-24T00:03:25;18.59;97.81
51305;HTU21D;37392;50.964;6.952;2023-06-24T00:05:50;18.52;97.36
51305;HTU21D;37392;50.964;6.952;2023-06-24T00:08:16;18.41;97.47
51305;HTU21D;37392;50.964;6.952;2023-06-24T00:10:48;18.35;97.58
51305;HTU21D;37392;50.964;6.952;2023-06-24T00:13:17;18.24;97.79
51305;HTU21D;37392;50.964;6.952;2023-06-24T00:15:43;18.27;98.11
51305;HTU21D;37392;50.964;6.952;2023-06-24T00:18:12;18.24;98.72
51305;HTU21D;37392;50.964;6.952;2023-06-24T00:20:38;18.17;98.64
51305;HTU21D;37392;50.964;6.952;2023-06-24T00:23:05;18.13;98.44
51305;HTU21D;37392;50.964;6.952;2023-06-24T00:25:31;18.07;98.61
51305;HTU21D;37392;50.964;6.952;2023-06-24T00:27:57;18.07;99.45
51305;HTU21D;37392;50.964;6.952;2023-06-24T00:30:23;18.23;101.19
51305;HTU21D;37392;50.964;6.952;2023-06-24T00:32:48;18.25;100.99
51305;HTU21D;37392;50.964;6.952;2023-06-24T00:35:14;18.26;101.38
51305;HTU21D;37392;50.964;6.952;2023-06-24T00:37:40;18.28;101.09
51305;HTU21D;37392;50.964;6.952;2023-06-24T00:40:08;18.26;101.64
51305;HTU21D;37392;50.964;6.952;2023-06-24T00:42:40;18.29;101.74
51305;HTU21D;37392;50.964;6.952;2023-06-24T00:45:08;18.21;101.83
51305;HTU21D;37392;50.964;6.952;2023-06-24T00:47:35;18.18;102.14
51305;HTU21D;37392;50.964;6.952;2023-06-24T00:50:01;18.11;102.31
51305;HTU21D;37392;50.964;6.952;2023-06-24T00:52:26;18.06;102.59
51305;HTU21D;37392;50.964;6.952;2023-06-24T00:54:52;18.03;102.53
51305;HTU21D;37392;50.964;6.952;2023-06-24T00:57:19;18.03;103.60
51305;HTU21D;37392;50.964;6.952;2023-06-24T00:59:50;18.05;103.76
51305;HTU21D;37392;50.964;6.952;2023-06-24T01:02:20;18.05;103.57
51305;HTU21D;37392;50.964;6.952;2023-06-24T01:04:47;18.00;103.93
51305;HTU21D;37392;50.964;6.952;2023-06-24T01:07:14;17.94;104.16
51305;HTU21D;37392;50.964;6.952;2023-06-24T01:09:40;17.89;104.22
51305;HTU21D;37392;50.964;6.952;2023-06-24T01:12:07;17.84;104.35
51305;HTU21D;37392;50.964;6.952;2023-06-24T01:14:34;17.80;104.21
51305;HTU21D;37392;50.964;6.952;2023-06-24T01:17:13;17.75;104.47
51305;HTU21D;37392;50.964;6.952;2023-06-24T01:19:51;17.69;104.95
51305;HTU21D;37392;50.964;6.952;2023-06-24T01:25:41;17.56;105.19
51305;HTU21D;37392;50.964;6.952;2023-06-24T01:34:58;17.45;106.56
51305;HTU21D;37392;50.964;6.952;2023-06-24T01:37:29;17.34;106.56
51305;HTU21D;37392;50.964;6.952;2023-06-24T01:40:13;17.44;107.08
51305;HTU21D;37392;50.964;6.952;2023-06-24T01:42:44;17.48;106.39
51305;HTU21D;37392;50.964;6.952;2023-06-24T01:45:14;17.43;106.49
51305;HTU21D;37392;50.964;6.952;2023-06-24T01:47:44;17.38;106.72
51305;HTU21D;37392;50.964;6.952;2023-06-24T01:50:14;17.43;106.55
51305;HTU21D;37392;50.964;6.952;2023-06-24T01:52:43;17.43;106.62
51305;HTU21D;37392;50.964;6.952;2023-06-24T01:55:10;17.44;106.51
51305;HTU21D;37392;50.964;6.952;2023-06-24T01:57:40;17.47;106.28
51305;HTU21D;37392;50.964;6.952;2023-06-24T02:00:08;17.48;106.04
51305;HTU21D;37392;50.964;6.952;2023-06-24T02:02:36;17.45;106.15
51305;HTU21D;37392;50.964;6.952;2023-06-24T02:05:03;17.38;106.53
51305;HTU21D;37392;50.964;6.952;2023-06-24T02:07:30;17.28;106.69
51305;HTU21D;37392;50.964;6.952;2023-06-24T02:09:57;17.22;107.15
51305;HTU21D;37392;50.964;6.952;2023-06-24T02:12:26;17.31;107.07
51305;HTU21D;37392;50.964;6.952;2023-06-24T02:14:54;17.31;106.75
51305;HTU21D;37392;50.964;6.952;2023-06-24T02:17:21;17.24;106.90
51305;HTU21D;37392;50.964;6.952;2023-06-24T02:19:50;17.22;106.91
51305;HTU21D;37392;50.964;6.952;2023-06-24T02:22:17;17.31;106.59
51305;HTU21D;37392;50.964;6.952;2023-06-24T02:24:44;17.30;106.50
51305;HTU21D;37392;50.964;6.952;2023-06-24T02:27:11;17.21;106.50
51305;HTU21D;37392;50.964;6.952;2023-06-24T02:29:39;17.15;106.60
51305;HTU21D;37392;50.964;6.952;2023-06-24T02:32:06;17.16;106.66
51305;HTU21D;37392;50.964;6.952;2023-06-24T02:34:32;17.17;106.60
51305;HTU21D;37392;50.964;6.952;2023-06-24T02:36:57;17.15;106.52
51305;HTU21D;37392;50.964;6.952;2023-06-24T02:39:23;17.07;106.42
51305;HTU21D;37392;50.964;6.952;2023-06-24T02:41:49;17.10;106.74
51305;HTU21D;37392;50.964;6.952;2023-06-24T02:44:15;17.09;106.72
51305;HTU21D;37392;50.964;6.952;2023-06-24T02:46:42;17.06;106.81
51305;HTU21D;37392;50.964;6.952;2023-06-24T02:49:10;17.10;106.72
51305;HTU21D;37392;50.964;6.952;2023-06-24T02:51:38;17.15;106.53
51305;HTU21D;37392;50.964;6.952;2023-06-24T02:54:05;17.10;106.47
51305;HTU21D;37392;50.964;6.952;2023-06-24T02:56:32;17.07;106.59
51305;HTU21D;37392;50.964;6.952;2023-06-24T02:58:58;17.05;106.41
51305;HTU21D;37392;50.964;6.952;2023-06-24T03:01:25;17.03;106.52
51305;HTU21D;37392;50.964;6.952;2023-06-24T03:03:56;16.98;106.65
51305;HTU21D;37392;50.964;6.952;2023-06-24T03:06:22;16.96;106.70
51305;HTU21D;37392;50.964;6.952;2023-06-24T03:08:49;16.93;106.90
51305;HTU21D;37392;50.964;6.952;2023-06-24T03:11:15;16.94;106.69
51305;HTU21D;37392;50.964;6.952;2023-06-24T03:13:42;16.93;106.69
51305;HTU21D;37392;50.964;6.952;2023-06-24T03:16:08;16.93;106.54
51305;HTU21D;37392;50.964;6.952;2023-06-24T03:18:40;16.95;106.50
51305;HTU21D;37392;50.964;6.952;2023-06-24T03:21:09;16.93;106.48
51305;HTU21D;37392;50.964;6.952;2023-06-24T03:23:35;16.89;106.58
51305;HTU21D;37392;50.964;6.952;2023-06-24T03:26:01;16.90;106.56
51305;HTU21D;37392;50.964;6.952;2023-06-24T03:28:30;16.87;106.56
51305;HTU21D;37392;50.964;6.952;2023-06-24T03:30:57;16.85;106.69
51305;HTU21D;37392;50.964;6.952;2023-06-24T03:33:23;16.85;106.58
51305;HTU21D;37392;50.964;6.952;2023-06-24T03:35:50;16.86;106.56
51305;HTU21D;37392;50.964;6.952;2023-06-24T03:38:16;16.89;106.43
51305;HTU21D;37392;50.964;6.952;2023-06-24T03:40:41;16.94;106.37
51305;HTU21D;37392;50.964;6.952;2023-06-24T03:43:09;16.98;106.30
51305;HTU21D;37392;50.964;6.952;2023-06-24T03:45:34;17.02;105.95
51305;HTU21D;37392;50.964;6.952;2023-06-24T03:48:00;17.04;106.02
51305;HTU21D;37392;50.964;6.952;2023-06-24T03:50:26;17.05;106.04
51305;HTU21D;37392;50.964;6.952;2023-06-24T03:52:51;17.07;106.00
51305;HTU21D;37392;50.964;6.952;2023-06-24T03:55:17;17.15;105.87
51305;HTU21D;37392;50.964;6.952;2023-06-24T03:57:42;17.18;105.84
51305;HTU21D;37392;50.964;6.952;2023-06-24T04:00:08;17.26;105.61
51305;HTU21D;37392;50.964;6.952;2023-06-24T04:02:42;17.33;105.43
51305;HTU21D;37392;50.964;6.952;2023-06-24T04:05:09;17.44;105.15
51305;HTU21D;37392;50.964;6.952;2023-06-24T04:07:35;17.54;104.95
51305;HTU21D;37392;50.964;6.952;2023-06-24T04:10:03;17.63;104.78
51305;HTU21D;37392;50.964;6.952;2023-06-24T04:12:35;17.79;104.23
51305;HTU21D;37392;50.964;6.952;2023-06-24T04:15:02;17.99;103.66
51305;HTU21D;37392;50.964;6.952;2023-06-24T04:17:29;18.22;102.22
51305;HTU21D;37392;50.964;6.952;2023-06-24T04:19:55;18.50;101.78
51305;HTU21D;37392;50.964;6.952;2023-06-24T04:22:21;19.08;98.29
51305;HTU21D;37392;50.964;6.952;2023-06-24T04:24:46;19.43;97.03
51305;HTU21D;37392;50.964;6.952;2023-06-24T04:27:12;19.89;94.77
51305;HTU21D;37392;50.964;6.952;2023-06-24T04:29:37;20.36;92.71
51305;HTU21D;37392;50.964;6.952;2023-06-24T04:32:03;20.74;90.73
51305;HTU21D;37392;50.964;6.952;2023-06-24T04:34:29;21.03;88.56
51305;HTU21D;37392;50.964;6.952;2023-06-24T04:36:55;21.53;87.23
51305;HTU21D;37392;50.964;6.952;2023-06-24T04:39:20;21.82;85.40
51305;HTU21D;37392;50.964;6.952;2023-06-24T04:41:46;22.20;83.71
51305;HTU21D;37392;50.964;6.952;2023-06-24T04:44:12;22.49;82.36
51305;HTU21D;37392;50.964;6.952;2023-06-24T04:46:38;22.67;81.04
51305;HTU21D;37392;50.964;6.952;2023-06-24T04:49:05;23.10;79.95
51305;HTU21D;37392;50.964;6.952;2023-06-24T04:51:31;23.56;78.25
51305;HTU21D;37392;50.964;6.952;2023-06-24T04:53:57;24.05;76.06
51305;HTU21D;37392;50.964;6.952;2023-06-24T04:56:23;24.45;74.99
51305;HTU21D;37392;50.964;6.952;2023-06-24T04:58:48;24.50;73.38
51305;HTU21D;37392;50.964;6.952;2023-06-24T05:01:14;24.72;73.10
51305;HTU21D;37392;50.964;6.952;2023-06-24T05:03:39;25.36;71.19
51305;HTU21D;37392;50.964;6.952;2023-06-24T05:06:05;25.77;68.83
51305;HTU21D;37392;50.964;6.952;2023-06-24T05:08:30;25.69;68.73
51305;HTU21D;37392;50.964;6.952;2023-06-24T05:10:56;25.96;68.88
51305;HTU21D;37392;50.964;6.952;2023-06-24T05:13:22;26.42;66.94
51305;HTU21D;37392;50.964;6.952;2023-06-24T05:15:48;26.35;66.75
51305;HTU21D;37392;50.964;6.952;2023-06-24T05:18:13;26.62;66.01
51305;HTU21D;37392;50.964;6.952;2023-06-24T05:20:39;26.85;64.63
51305;HTU21D;37392;50.964;6.952;2023-06-24T05:23:04;26.64;65.04
51305;HTU21D;37392;50.964;6.952;2023-06-24T05:25:30;26.93;64.73
51305;HTU21D;37392;50.964;6.952;2023-06-24T05:27:55;27.69;62.46
51305;HTU21D;37392;50.964;6.952;2023-06-24T05:30:21;28.03;61.70
51305;HTU21D;37392;50.964;6.952;2023-06-24T05:32:46;27.91;61.41
51305;HTU21D;37392;50.964;6.952;2023-06-24T05:35:12;28.61;59.45
51305;HTU21D;37392;50.964;6.952;2023-06-24T05:37:38;27.97;60.77
51305;HTU21D;37392;50.964;6.952;2023-06-24T05:40:04;28.09;61.18
51305;HTU21D;37392;50.964;6.952;2023-06-24T05:42:30;28.62;59.99
51305;HTU21D;37392;50.964;6.952;2023-06-24T05:44:55;28.72;58.96
51305;HTU21D;37392;50.964;6.952;2023-06-24T05:47:21;28.87;58.51
51305;HTU21D;37392;50.964;6.952;2023-06-24T05:49:46;29.02;57.65
51305;HTU21D;37392;50.964;6.952;2023-06-24T05:52:12;29.41;57.55
51305;HTU21D;37392;50.964;6.952;2023-06-24T05:54:37;30.01;55.51
51305;HTU21D;37392;50.964;6.952;2023-06-24T05:57:03;30.02;55.27
51305;HTU21D;37392;50.964;6.952;2023-06-24T05:59:33;29.97;55.54
51305;HTU21D;37392;50.964;6.952;2023-06-24T06:01:59;30.06;55.05
51305;HTU21D;37392;50.964;6.952;2023-06-24T06:04:26;30.25;54.87
51305;HTU21D;37392;50.964;6.952;2023-06-24T06:06:52;30.05;54.77
51305;HTU21D;37392;50.964;6.952;2023-06-24T06:09:18;30.71;54.52
51305;HTU21D;37392;50.964;6.952;2023-06-24T06:11:43;31.90;51.51
51305;HTU21D;37392;50.964;6.952;2023-06-24T06:14:09;32.48;49.85
51305;HTU21D;37392;50.964;6.952;2023-06-24T06:16:35;33.17;48.47
51305;HTU21D;37392;50.964;6.952;2023-06-24T06:19:00;33.19;47.36
51305;HTU21D;37392;50.964;6.952;2023-06-24T06:21:26;33.81;46.25
51305;HTU21D;37392;50.964;6.952;2023-06-24T06:23:52;33.79;45.88
51305;HTU21D;37392;50.964;6.952;2023-06-24T06:26:18;34.29;45.90
51305;HTU21D;37392;50.964;6.952;2023-06-24T06:28:44;35.25;43.42
51305;HTU21D;37392;50.964;6.952;2023-06-24T06:31:13;35.65;43.19
51305;HTU21D;37392;50.964;6.952;2023-06-24T06:33:39;36.03;41.84
51305;HTU21D;37392;50.964;6.952;2023-06-24T06:36:04;36.10;41.52
51305;HTU21D;37392;50.964;6.952;2023-06-24T06:38:32;35.66;41.85
51305;HTU21D;37392;50.964;6.952;2023-06-24T06:40:58;36.53;41.06
51305;HTU21D;37392;50.964;6.952;2023-06-24T06:43:24;36.09;41.27
51305;HTU21D;37392;50.964;6.952;2023-06-24T06:45:49;35.89;41.51
51305;HTU21D;37392;50.964;6.952;2023-06-24T06:48:15;35.64;41.80
51305;HTU21D;37392;50.964;6.952;2023-06-24T06:50:41;35.53;42.00
51305;HTU21D;37392;50.964;6.952;2023-06-24T06:53:06;35.48;42.26
51305;HTU21D;37392;50.964;6.952;2023-06-24T06:55:32;35.93;41.53
51305;HTU21D;37392;50.964;6.952;2023-06-24T06:57:57;35.94;41.20
51305;HTU21D;37392;50.964;6.952;2023-06-24T07:00:23;35.98;40.90
51305;HTU21D;37392;50.964;6.952;2023-06-24T07:02:49;35.65;41.30
51305;HTU21D;37392;50.964;6.952;2023-06-24T07:05:14;35.40;42.09
51305;HTU21D;37392;50.964;6.952;2023-06-24T07:07:40;35.62;41.19
51305;HTU21D;37392;50.964;6.952;2023-06-24T07:10:07;35.79;40.78
51305;HTU21D;37392;50.964;6.952;2023-06-24T07:12:32;36.61;40.13
51305;HTU21D;37392;50.964;6.952;2023-06-24T07:14:58;37.43;38.76
51305;HTU21D;37392;50.964;6.952;2023-06-24T07:17:24;37.78;37.88
51305;HTU21D;37392;50.964;6.952;2023-06-24T07:19:49;38.24;37.30
51305;HTU21D;37392;50.964;6.952;2023-06-24T07:22:15;38.01;36.16
51305;HTU21D;37392;50.964;6.952;2023-06-24T07:24:41;37.45;37.04
51305;HTU21D;37392;50.964;6.952;2023-06-24T07:27:07;36.75;37.54
51305;HTU21D;37392;50.964;6.952;2023-06-24T07:29:33;36.39;37.95
51305;HTU21D;37392;50.964;6.952;2023-06-24T07:31:59;36.26;37.53
51305;HTU21D;37392;50.964;6.952;2023-06-24T07:34:25;36.60;37.29
51305;HTU21D;37392;50.964;6.952;2023-06-24T07:36:51;37.72;36.37
51305;HTU21D;37392;50.964;6.952;2023-06-24T07:39:17;37.88;35.95
51305;HTU21D;37392;50.964;6.952;2023-06-24T07:41:43;37.96;35.45
51305;HTU21D;37392;50.964;6.952;2023-06-24T07:44:08;38.45;35.34
51305;HTU21D;37392;50.964;6.952;2023-06-24T07:46:34;39.03;34.55
51305;HTU21D;37392;50.964;6.952;2023-06-24T07:49:00;39.15;34.06
51305;HTU21D;37392;50.964;6.952;2023-06-24T07:51:26;39.21;33.57
51305;HTU21D;37392;50.964;6.952;2023-06-24T07:53:52;39.24;33.05
51305;HTU21D;37392;50.964;6.952;2023-06-24T07:56:18;39.12;33.63
51305;HTU21D;37392;50.964;6.952;2023-06-24T07:58:44;39.45;33.15
51305;HTU21D;37392;50.964;6.952;2023-06-24T08:01:09;39.61;32.75
51305;HTU21D;37392;50.964;6.952;2023-06-24T08:03:35;40.03;32.74
51305;HTU21D;37392;50.964;6.952;2023-06-24T08:06:02;40.09;32.54
51305;HTU21D;37392;50.964;6.952;2023-06-24T08:08:28;40.10;32.06
51305;HTU21D;37392;50.964;6.952;2023-06-24T08:10:54;40.63;31.60
51305;HTU21D;37392;50.964;6.952;2023-06-24T08:13:21;40.65;31.60
51305;HTU21D;37392;50.964;6.952;2023-06-24T08:15:46;40.48;31.47
51305;HTU21D;37392;50.964;6.952;2023-06-24T08:18:12;40.51;31.32
51305;HTU21D;37392;50.964;6.952;2023-06-24T08:20:38;39.93;31.86
51305;HTU21D;37392;50.964;6.952;2023-06-24T08:23:03;40.47;31.71
51305;HTU21D;37392;50.964;6.952;2023-06-24T08:25:29;40.76;31.26
51305;HTU21D;37392;50.964;6.952;2023-06-24T08:27:55;41.60;30.42
51305;HTU21D;37392;50.964;6.952;2023-06-24T08:30:21;41.51;29.93
51305;HTU21D;37392;50.964;6.952;2023-06-24T08:32:47;42.01;29.87
51305;HTU21D;37392;50.964;6.952;2023-06-24T08:35:12;42.09;29.52
51305;HTU21D;37392;50.964;6.952;2023-06-24T08:37:38;41.74;30.03
51305;HTU21D;37392;50.964;6.952;2023-06-24T08:40:05;41.71;30.06
51305;HTU21D;37392;50.964;6.952;2023-06-24T08:42:31;41.85;30.06
51305;HTU21D;37392;50.964;6.952;2023-06-24T08:44:57;41.15;30.38
51305;HTU21D;37392;50.964;6.952;2023-06-24T08:47:28;41.22;30.74
51305;HTU21D;37392;50.964;6.952;2023-06-24T08:50:13;41.18;30.94
51305;HTU21D;37392;50.964;6.952;2023-06-24T08:52:42;41.15;30.96
51305;HTU21D;37392;50.964;6.952;2023-06-24T08:55:13;41.72;30.08
51305;HTU21D;37392;50.964;6.952;2023-06-24T08:57:41;40.90;30.86
51305;HTU21D;37392;50.964;6.952;2023-06-24T09:00:07;41.20;31.14
51305;HTU21D;37392;50.964;6.952;2023-06-24T09:02:37;42.15;30.33
51305;HTU21D;37392;50.964;6.952;2023-06-24T09:05:07;42.83;29.03
51305;HTU21D;37392;50.964;6.952;2023-06-24T09:07:33;41.51;30.19
51305;HTU21D;37392;50.964;6.952;2023-06-24T09:09:59;41.76;29.92
51305;HTU21D;37392;50.964;6.952;2023-06-24T09:12:31;42.16;29.98
51305;HTU21D;37392;50.964;6.952;2023-06-24T09:14:58;42.19;29.51
51305;HTU21D;37392;50.964;6.952;2023-06-24T09:17:24;41.90;29.76
51305;HTU21D;37392;50.964;6.952;2023-06-24T09:19:50;42.06;30.02
51305;HTU21D;37392;50.964;6.952;2023-06-24T09:22:16;42.70;29.21
51305;HTU21D;37392;50.964;6.952;2023-06-24T09:24:45;42.55;28.98
51305;HTU21D;37392;50.964;6.952;2023-06-24T09:27:16;43.05;28.86
51305;HTU21D;37392;50.964;6.952;2023-06-24T09:29:45;43.58;28.40
51305;HTU21D;37392;50.964;6.952;2023-06-24T09:32:12;44.29;27.68
51305;HTU21D;37392;50.964;6.952;2023-06-24T09:34:38;44.42;27.30
51305;HTU21D;37392;50.964;6.952;2023-06-24T09:37:04;44.11;27.53
51305;HTU21D;37392;50.964;6.952;2023-06-24T09:39:36;43.80;27.57
51305;HTU21D;37392;50.964;6.952;2023-06-24T09:42:04;42.95;28.12
51305;HTU21D;37392;50.964;6.952;2023-06-24T09:44:30;42.89;28.75
51305;HTU21D;37392;50.964;6.952;2023-06-24T09:46:56;43.35;28.39
51305;HTU21D;37392;50.964;6.952;2023-06-24T09:49:22;43.33;28.07
51305;HTU21D;37392;50.964;6.952;2023-06-24T09:51:54;43.16;28.46
51305;HTU21D;37392;50.964;6.952;2023-06-24T09:54:24;43.17;28.64
51305;HTU21D;37392;50.964;6.952;2023-06-24T09:56:51;43.52;28.17
51305;HTU21D;37392;50.964;6.952;2023-06-24T09:59:21;43.32;28.13
51305;HTU21D;37392;50.964;6.952;2023-06-24T10:01:48;44.30;27.47
51305;HTU21D;37392;50.964;6.952;2023-06-24T10:04:18;45.06;26.41
51305;HTU21D;37392;50.964;6.952;2023-06-24T10:06:45;45.86;25.04
51305;HTU21D;37392;50.964;6.952;2023-06-24T10:09:11;45.85;24.99
51305;HTU21D;37392;50.964;6.952;2023-06-24T10:11:39;45.45;24.78
51305;HTU21D;37392;50.964;6.952;2023-06-24T10:14:05;44.52;25.96
51305;HTU21D;37392;50.964;6.952;2023-06-24T10:16:31;43.68;26.31
51305;HTU21D;37392;50.964;6.952;2023-06-24T10:19:00;43.17;27.30
51305;HTU21D;37392;50.964;6.952;2023-06-24T10:21:47;43.65;26.59
51305;HTU21D;37392;50.964;6.952;2023-06-24T10:24:35;44.41;25.98
51305;HTU21D;37392;50.964;6.952;2023-06-24T10:27:06;45.48;24.88
51305;HTU21D;37392;50.964;6.952;2023-06-24T10:29:46;46.25;24.46
51305;HTU21D;37392;50.964;6.952;2023-06-24T10:32:13;45.85;24.46
51305;HTU21D;37392;50.964;6.952;2023-06-24T10:34:40;45.94;24.36
51305;HTU21D;37392;50.964;6.952;2023-06-24T10:37:54;45.88;24.16
51305;HTU21D;37392;50.964;6.952;2023-06-24T10:40:01;45.81;24.21
51305;HTU21D;37392;50.964;6.952;2023-06-24T10:42:37;46.19;24.76
51305;HTU21D;37392;50.964;6.952;2023-06-24T10:47:39;47.28;23.64
51305;HTU21D;37392;50.964;6.952;2023-06-24T10:50:07;47.35;23.44
51305;HTU21D;37392;50.964;6.952;2023-06-24T10:52:41;47.09;23.01
51305;HTU21D;37392;50.964;6.952;2023-06-24T10:55:09;46.12;22.76
51305;HTU21D;37392;50.964;6.952;2023-06-24T10:57:34;45.35;23.98
51305;HTU21D;37392;50.964;6.952;2023-06-24T11:00:02;44.92;24.32
51305;HTU21D;37392;50.964;6.952;2023-06-24T11:02:28;44.20;24.69
51305;HTU21D;37392;50.964;6.952;2023-06-24T11:04:59;43.87;23.95
51305;HTU21D;37392;50.964;6.952;2023-06-24T11:07:28;44.56;23.46
51305;HTU21D;37392;50.964;6.952;2023-06-24T11:09:58;45.02;21.45
51305;HTU21D;37392;50.964;6.952;2023-06-24T11:12:28;45.12;21.24
51305;HTU21D;37392;50.964;6.952;2023-06-24T11:14:57;45.72;21.24
51305;HTU21D;37392;50.964;6.952;2023-06-24T11:17:24;45.36;21.50
51305;HTU21D;37392;50.964;6.952;2023-06-24T11:19:55;44.66;22.35
51305;HTU21D;37392;50.964;6.952;2023-06-24T11:22:23;44.53;22.70
51305;HTU21D;37392;50.964;6.952;2023-06-24T11:24:49;43.77;23.00
51305;HTU21D;37392;50.964;6.952;2023-06-24T11:27:15;43.88;23.73
51305;HTU21D;37392;50.964;6.952;2023-06-24T11:29:41;43.87;24.04
51305;HTU21D;37392;50.964;6.952;2023-06-24T11:32:08;43.93;23.79
51305;HTU21D;37392;50.964;6.952;2023-06-24T11:34:34;42.72;24.10
51305;HTU21D;37392;50.964;6.952;2023-06-24T11:37:13;41.81;25.52
51305;HTU21D;37392;50.964;6.952;2023-06-24T11:39:40;40.67;26.51
51305;HTU21D;37392;50.964;6.952;2023-06-24T11:42:07;39.42;27.39
51305;HTU21D;37392;50.964;6.952;2023-06-24T11:44:35;38.21;28.96
51305;HTU21D;37392;50.964;6.952;2023-06-24T11:47:05;37.47;30.19
51305;HTU21D;37392;50.964;6.952;2023-06-24T11:49:32;37.33;31.09
51305;HTU21D;37392;50.964;6.952;2023-06-24T11:52:13;36.90;31.28
51305;HTU21D;37392;50.964;6.952;2023-06-24T11:54:41;36.67;32.27
51305;HTU21D;37392;50.964;6.952;2023-06-24T11:57:08;36.61;32.74
51305;HTU21D;37392;50.964;6.952;2023-06-24T11:59:33;36.48;32.80
51305;HTU21D;37392;50.964;6.952;2023-06-24T12:01:59;36.29;33.14
51305;HTU21D;37392;50.964;6.952;2023-06-24T12:04:29;36.15;33.23
51305;HTU21D;37392;50.964;6.952;2023-06-24T12:06:56;36.07;33.04
51305;HTU21D;37392;50.964;6.952;2023-06-24T12:09:23;35.54;33.08
51305;HTU21D;37392;50.964;6.952;2023-06-24T12:11:49;34.78;34.13
51305;HTU21D;37392;50.964;6.952;2023-06-24T12:14:14;34.40;35.28
51305;HTU21D;37392;50.964;6.952;2023-06-24T12:16:40;33.80;35.53
51305;HTU21D;37392;50.964;6.952;2023-06-24T12:19:09;33.55;36.85
51305;HTU21D;37392;50.964;6.952;2023-06-24T12:21:35;33.36;37.50
51305;HTU21D;37392;50.964;6.952;2023-06-24T12:24:01;33.12;37.91
51305;HTU21D;37392;50.964;6.952;2023-06-24T12:26:27;32.66;38.33
51305;HTU21D;37392;50.964;6.952;2023-06-24T12:28:56;32.37;39.19
51305;HTU21D;37392;50.964;6.952;2023-06-24T12:31:22;32.41;39.84
51305;HTU21D;37392;50.964;6.952;2023-06-24T12:33:49;32.55;39.30
51305;HTU21D;37392;50.964;6.952;2023-06-24T12:36:21;32.72;39.48
51305;HTU21D;37392;50.964;6.952;2023-06-24T12:38:47;32.67;39.53
51305;HTU21D;37392;50.964;6.952;2023-06-24T12:41:13;32.58;39.21
51305;HTU21D;37392;50.964;6.952;2023-06-24T12:43:38;32.53;38.91
51305;HTU21D;37392;50.964;6.952;2023-06-24T12:46:04;32.44;39.48
51305;HTU21D;37392;50.964;6.952;2023-06-24T12:48:29;32.38;40.33
51305;HTU21D;37392;50.964;6.952;2023-06-24T12:50:55;32.17;40.60
51305;HTU21D;37392;50.964;6.952;2023-06-24T12:53:21;32.02;41.48
51305;HTU21D;37392;50.964;6.952;2023-06-24T12:55:47;31.99;40.92
51305;HTU21D;37392;50.964;6.952;2023-06-24T12:58:22;31.93;40.97
51305;HTU21D;37392;50.964;6.952;2023-06-24T13:00:48;31.83;41.33
51305;HTU21D;37392;50.964;6.952;2023-06-24T13:03:14;31.76;41.45
51305;HTU21D;37392;50.964;6.952;2023-06-24T13:05:40;31.67;42.02
51305;HTU21D;37392;50.964;6.952;2023-06-24T13:08:05;31.55;42.14
51305;HTU21D;37392;50.964;6.952;2023-06-24T13:10:31;31.51;42.40
51305;HTU21D;37392;50.964;6.952;2023-06-24T13:12:57;31.28;42.50
51305;HTU21D;37392;50.964;6.952;2023-06-24T13:15:23;31.15;43.22
51305;HTU21D;37392;50.964;6.952;2023-06-24T13:17:49;31.12;42.59
51305;HTU21D;37392;50.964;6.952;2023-06-24T13:20:15;30.97;43.39
51305;HTU21D;37392;50.964;6.952;2023-06-24T13:22:41;31.02;43.12
51305;HTU21D;37392;50.964;6.952;2023-06-24T13:25:07;31.15;42.61
51305;HTU21D;37392;50.964;6.952;2023-06-24T13:27:33;31.28;42.79
51305;HTU21D;37392;50.964;6.952;2023-06-24T13:29:58;31.28;42.84
51305;HTU21D;37392;50.964;6.952;2023-06-24T13:32:24;31.08;42.73
51305;HTU21D;37392;50.964;6.952;2023-06-24T13:34:49;30.79;43.13
51305;HTU21D;37392;50.964;6.952;2023-06-24T13:37:15;30.56;43.42
51305;HTU21D;37392;50.964;6.952;2023-06-24T13:39:41;30.38;43.78
51305;HTU21D;37392;50.964;6.952;2023-06-24T13:42:06;30.32;44.00
51305;HTU21D;37392;50.964;6.952;2023-06-24T13:44:32;30.33;43.74
51305;HTU21D;37392;50.964;6.952;2023-06-24T13:46:57;30.41;44.09
51305;HTU21D;37392;50.964;6.952;2023-06-24T13:49:23;30.53;43.63
51305;HTU21D;37392;50.964;6.952;2023-06-24T13:51:49;30.55;42.86
51305;HTU21D;37392;50.964;6.952;2023-06-24T13:54:14;30.44;43.14
51305;HTU21D;37392;50.964;6.952;2023-06-24T13:56:40;30.35;42.82
51305;HTU21D;37392;50.964;6.952;2023-06-24T13:59:05;30.12;43.09
51305;HTU21D;37392;50.964;6.952;2023-06-24T14:01:31;30.01;44.12
51305;HTU21D;37392;50.964;6.952;2023-06-24T14:03:57;29.80;43.58
51305;HTU21D;37392;50.964;6.952;2023-06-24T14:06:23;29.73;43.87
51305;HTU21D;37392;50.964;6.952;2023-06-24T14:08:50;29.60;44.08
51305;HTU21D;37392;50.964;6.952;2023-06-24T14:11:16;29.53;43.97
51305;HTU21D;37392;50.964;6.952;2023-06-24T14:13:43;29.54;43.61
51305;HTU21D;37392;50.964;6.952;2023-06-24T14:16:08;29.56;43.48
51305;HTU21D;37392;50.964;6.952;2023-06-24T14:18:35;29.63;43.30
51305;HTU21D;37392;50.964;6.952;2023-06-24T14:21:03;29.75;43.36
51305;HTU21D;37392;50.964;6.952;2023-06-24T14:23:30;29.81;42.82
51305;HTU21D;37392;50.964;6.952;2023-06-24T14:25:57;29.85;42.52
51305;HTU21D;37392;50.964;6.952;2023-06-24T14:28:24;29.88;42.73
51305;HTU21D;37392;50.964;6.952;2023-06-24T14:30:50;29.91;42.46
51305;HTU21D;37392;50.964;6.952;2023-06-24T14:33:15;29.85;41.70
51305;HTU21D;37392;50.964;6.952;2023-06-24T14:35:41;29.77;42.37
51305;HTU21D;37392;50.964;6.952;2023-06-24T14:38:07;29.67;42.39
51305;HTU21D;37392;50.964;6.952;2023-06-24T14:40:33;29.66;42.87
51305;HTU21D;37392;50.964;6.952;2023-06-24T14:42:59;29.59;42.35
51305;HTU21D;37392;50.964;6.952;2023-06-24T14:45:25;29.52;41.22
51305;HTU21D;37392;50.964;6.952;2023-06-24T14:47:51;29.38;40.61
51305;HTU21D;37392;50.964;6.952;2023-06-24T14:50:17;29.28;40.17
51305;HTU21D;37392;50.964;6.952;2023-06-24T14:52:42;29.21;40.73
51305;HTU21D;37392;50.964;6.952;2023-06-24T14:55:08;29.16;40.70
51305;HTU21D;37392;50.964;6.952;2023-06-24T14:57:35;29.15;40.72
51305;HTU21D;37392;50.964;6.952;2023-06-24T15:00:02;29.02;41.16
51305;HTU21D;37392;50.964;6.952;2023-06-24T15:02:28;29.04;41.31
51305;HTU21D;37392;50.964;6.952;2023-06-24T15:04:54;29.03;41.77
51305;HTU21D;37392;50.964;6.952;2023-06-24T15:07:20;29.03;41.34
51305;HTU21D;37392;50.964;6.952;2023-06-24T15:09:45;28.98;40.62
51305;HTU21D;37392;50.964;6.952;2023-06-24T15:12:11;28.86;40.88
51305;HTU21D;37392;50.964;6.952;2023-06-24T15:14:36;28.76;40.88
51305;HTU21D;37392;50.964;6.952;2023-06-24T15:17:03;28.67;40.80
51305;HTU21D;37392;50.964;6.952;2023-06-24T15:19:29;28.69;41.47
51305;HTU21D;37392;50.964;6.952;2023-06-24T15:21:54;28.72;41.55
51305;HTU21D;37392;50.964;6.952;2023-06-24T15:24:20;28.71;41.55